createdAt,value
2022-11-28T00:01:35.581Z,10.20
2022-11-28T00:04:02.653Z,10.00
2022-11-28T00:06:29.646Z,10.00
2022-11-28T00:08:59.313Z,10.00
2022-11-28T00:11:26.356Z,10.10
2022-11-28T00:13:54.070Z,10.20
2022-11-28T00:16:22.596Z,10.20
2022-11-28T00:18:50.309Z,10.10
2022-11-28T00:21:17.415Z,10.10
2022-11-28T00:23:45.743Z,10.20
2022-11-28T00:26:25.154Z,10.10
2022-11-28T00:28:51.992Z,10.20
2022-11-28T00:31:22.163Z,10.20
2022-11-28T00:33:49.409Z,9.70
2022-11-28T00:36:16.970Z,9.30
2022-11-28T00:38:43.692Z,9.40
2022-11-28T00:41:17.104Z,9.40
2022-11-28T00:43:45.399Z,9.20
2022-11-28T00:46:13.800Z,9.00
2022-11-28T00:48:40.790Z,8.60
2022-11-28T00:51:12.941Z,8.40
2022-11-28T00:53:42.404Z,8.50
2022-11-28T00:56:11.645Z,8.60
2022-11-28T00:58:39.943Z,8.80
2022-11-28T01:01:10.729Z,9.20
2022-11-28T01:03:38.147Z,9.20
2022-11-28T01:06:06.118Z,9.30
2022-11-28T01:08:32.979Z,9.30
2022-11-28T01:11:00.662Z,9.40
2022-11-28T01:13:27.465Z,9.40
2022-11-28T01:15:54.343Z,9.30
2022-11-28T01:18:21.156Z,9.40
2022-11-28T01:20:47.947Z,9.50
2022-11-28T01:23:14.719Z,9.30
2022-11-28T01:25:41.427Z,9.20
2022-11-28T01:28:08.194Z,9.10
2022-11-28T01:30:34.940Z,9.20
2022-11-28T01:33:01.672Z,9.10
2022-11-28T01:35:28.556Z,8.80
2022-11-28T01:37:55.299Z,8.70
2022-11-28T01:40:22.143Z,8.60
2022-11-28T01:42:48.917Z,8.60
2022-11-28T01:45:26.020Z,8.50
2022-11-28T01:47:55.495Z,8.80
2022-11-28T01:50:23.365Z,8.90
2022-11-28T01:52:55.814Z,8.80
2022-11-28T01:55:27.030Z,8.90
2022-11-28T01:57:55.082Z,8.90
2022-11-28T02:00:22.362Z,9.00
2022-11-28T02:02:58.649Z,8.90
2022-11-28T02:05:25.531Z,8.90
2022-11-28T02:07:52.679Z,8.90
2022-11-28T02:10:28.713Z,9.00
2022-11-28T02:13:02.615Z,8.80
2022-11-28T02:16:11.804Z,8.60
2022-11-28T02:18:53.670Z,8.10
2022-11-28T02:21:29.527Z,8.30
2022-11-28T02:24:31.095Z,8.10
2022-11-28T02:27:42.296Z,7.80
2022-11-28T02:30:21.817Z,7.60
2022-11-28T02:33:00.680Z,7.50
2022-11-28T02:35:55.964Z,7.20
2022-11-28T02:39:03.766Z,7.30
2022-11-28T02:41:37.891Z,7.20
2022-11-28T02:44:18.006Z,7.20
2022-11-28T02:46:54.378Z,7.20
2022-11-28T02:49:30.003Z,7.10
2022-11-28T02:52:02.354Z,7.00
2022-11-28T02:54:31.633Z,6.90
2022-11-28T02:56:58.433Z,7.00
2022-11-28T02:59:37.387Z,6.90
2022-11-28T03:02:17.696Z,6.80
2022-11-28T03:05:31.058Z,6.70
2022-11-28T03:08:29.861Z,6.80
2022-11-28T03:11:09.669Z,6.80
2022-11-28T03:13:57.554Z,6.70
2022-11-28T03:16:39.288Z,6.70
2022-11-28T03:19:10.738Z,6.60
2022-11-28T03:21:56.110Z,6.60
2022-11-28T03:24:38.001Z,6.80
2022-11-28T03:27:19.218Z,6.50
2022-11-28T03:29:55.629Z,5.90
2022-11-28T03:32:27.493Z,5.70
2022-11-28T03:35:04.573Z,5.80
2022-11-28T03:37:35.818Z,6.00
2022-11-28T03:40:07.718Z,6.40
2022-11-28T03:42:40.400Z,6.50
2022-11-28T03:45:20.365Z,6.80
2022-11-28T03:47:55.588Z,6.80
2022-11-28T03:50:33.748Z,6.90
2022-11-28T03:53:09.932Z,7.00
2022-11-28T03:55:41.342Z,7.10
2022-11-28T03:58:23.164Z,6.90
2022-11-28T04:01:01.625Z,6.60
2022-11-28T04:03:48.595Z,6.60
2022-11-28T04:06:44.267Z,6.30
2022-11-28T04:09:17.818Z,6.30
2022-11-28T04:11:56.468Z,6.40
2022-11-28T04:14:46.127Z,6.30
2022-11-28T04:17:43.676Z,6.30
2022-11-28T04:20:25.456Z,6.50
2022-11-28T04:22:56.514Z,6.90
2022-11-28T04:25:24.838Z,7.00
2022-11-28T04:27:57.725Z,6.60
2022-11-28T04:30:24.879Z,6.70
2022-11-28T04:32:57.881Z,6.50
2022-11-28T04:35:36.139Z,6.50
2022-11-28T04:38:07.201Z,6.50
2022-11-28T04:40:47.145Z,6.40
2022-11-28T04:43:30.838Z,6.40
2022-11-28T04:46:06.457Z,6.30
2022-11-28T04:48:34.549Z,6.30
2022-11-28T04:51:26.958Z,6.30
2022-11-28T04:54:04.607Z,6.20
2022-11-28T04:56:41.192Z,6.10
2022-11-28T04:59:09.032Z,6.10
2022-11-28T05:01:38.342Z,6.20
2022-11-28T05:04:05.575Z,6.30
2022-11-28T05:06:34.591Z,6.10
2022-11-28T05:09:01.358Z,6.00
2022-11-28T05:11:28.524Z,5.90
2022-11-28T05:13:55.638Z,5.70
2022-11-28T05:16:23.107Z,5.60
2022-11-28T05:18:50.752Z,5.70
2022-11-28T05:21:17.478Z,5.60
2022-11-28T05:23:45.206Z,5.60
2022-11-28T05:26:22.395Z,5.30
2022-11-28T05:28:50.929Z,5.30
2022-11-28T05:31:19.499Z,5.50
2022-11-28T05:33:46.363Z,5.50
2022-11-28T05:36:15.360Z,5.60
2022-11-28T05:38:43.071Z,5.20
2022-11-28T05:41:17.816Z,5.30
2022-11-28T05:43:44.549Z,5.40
2022-11-28T05:46:11.455Z,5.30
2022-11-28T05:48:38.254Z,5.50
2022-11-28T05:51:05.554Z,5.30
2022-11-28T05:53:32.784Z,5.30
2022-11-28T05:55:59.785Z,5.20
2022-11-28T05:58:26.476Z,5.10
2022-11-28T06:00:53.215Z,5.10
2022-11-28T06:03:19.969Z,5.10
2022-11-28T06:05:46.791Z,5.20
2022-11-28T06:08:14.024Z,5.20
2022-11-28T06:10:41.492Z,5.20
2022-11-28T06:13:08.696Z,5.30
2022-11-28T06:15:38.289Z,5.30
2022-11-28T06:18:06.151Z,5.30
2022-11-28T06:20:35.291Z,5.40
2022-11-28T06:23:02.040Z,5.40
2022-11-28T06:25:29.137Z,5.20
2022-11-28T06:27:55.885Z,5.20
2022-11-28T06:30:22.593Z,5.20
2022-11-28T06:32:49.285Z,5.20
2022-11-28T06:35:16.277Z,5.00
2022-11-28T06:37:43.237Z,5.00
2022-11-28T06:40:10.122Z,5.20
2022-11-28T06:42:36.978Z,5.40
2022-11-28T06:45:05.382Z,5.50
2022-11-28T06:47:32.418Z,5.50
2022-11-28T06:49:59.262Z,5.60
2022-11-28T06:52:26.526Z,5.80
2022-11-28T06:54:53.303Z,5.90
2022-11-28T06:57:20.065Z,5.80
2022-11-28T06:59:48.745Z,5.40
2022-11-28T07:02:15.549Z,5.40
2022-11-28T07:04:42.355Z,5.30
2022-11-28T07:07:12.526Z,5.10
2022-11-28T07:09:43.005Z,5.10
2022-11-28T07:12:10.024Z,5.20
2022-11-28T07:14:36.840Z,5.10
2022-11-28T07:17:03.739Z,5.10
2022-11-28T07:19:30.661Z,5.20
2022-11-28T07:21:57.433Z,5.20
2022-11-28T07:24:24.218Z,5.10
2022-11-28T07:26:50.992Z,5.30
2022-11-28T07:29:18.564Z,5.30
2022-11-28T07:31:45.645Z,5.30
2022-11-28T07:34:12.767Z,5.50
2022-11-28T07:36:39.888Z,5.40
2022-11-28T07:39:08.964Z,5.20
2022-11-28T07:41:36.053Z,5.10
2022-11-28T07:44:04.282Z,5.10
2022-11-28T07:46:32.467Z,5.10
2022-11-28T07:48:59.750Z,5.10
2022-11-28T07:51:32.189Z,4.90
2022-11-28T07:54:00.052Z,4.60
2022-11-28T07:56:50.130Z,4.80
2022-11-28T07:59:16.730Z,4.80
2022-11-28T08:01:43.547Z,4.90
2022-11-28T08:04:10.580Z,4.90
2022-11-28T08:06:40.002Z,4.90
2022-11-28T08:09:07.710Z,4.90
2022-11-28T08:11:36.221Z,4.80
2022-11-28T08:14:03.145Z,5.10
2022-11-28T08:16:30.531Z,5.20
2022-11-28T08:19:00.530Z,5.30
2022-11-28T08:21:30.463Z,5.30
2022-11-28T08:24:01.138Z,5.20
2022-11-28T08:26:30.856Z,5.30
2022-11-28T08:28:59.016Z,5.50
2022-11-28T08:31:29.519Z,5.60
2022-11-28T08:33:58.102Z,5.80
2022-11-28T08:36:26.305Z,5.90
2022-11-28T08:39:09.860Z,5.90
2022-11-28T08:41:42.830Z,5.90
2022-11-28T08:44:09.733Z,6.00
2022-11-28T08:46:36.707Z,6.10
2022-11-28T08:49:04.742Z,6.10
2022-11-28T08:51:32.091Z,6.30
2022-11-28T08:53:59.810Z,6.40
2022-11-28T08:56:27.382Z,6.50
2022-11-28T08:58:54.880Z,6.30
2022-11-28T09:01:24.305Z,6.60
2022-11-28T09:03:51.992Z,6.60
2022-11-28T09:06:20.839Z,6.70
2022-11-28T09:08:48.676Z,6.70
2022-11-28T09:11:18.778Z,6.80
2022-11-28T09:13:46.069Z,7.00
2022-11-28T09:16:14.397Z,7.10
2022-11-28T09:18:41.435Z,7.30
2022-11-28T09:21:11.519Z,7.40
2022-11-28T09:23:41.038Z,7.50
2022-11-28T09:26:09.719Z,7.60
2022-11-28T09:28:36.935Z,7.60
2022-11-28T09:31:05.223Z,7.80
2022-11-28T09:33:32.211Z,7.90
2022-11-28T09:35:59.323Z,7.90
2022-11-28T09:38:26.578Z,8.20
2022-11-28T09:40:53.518Z,8.40
2022-11-28T09:43:41.927Z,8.70
2022-11-28T09:46:13.694Z,8.90
2022-11-28T09:48:51.155Z,8.90
2022-11-28T09:51:39.750Z,9.20
2022-11-28T09:54:17.540Z,9.10
2022-11-28T09:56:48.088Z,8.90
2022-11-28T09:59:26.736Z,8.80
2022-11-28T10:01:58.612Z,8.70
2022-11-28T10:04:37.548Z,8.80
2022-11-28T10:07:24.344Z,9.00
2022-11-28T10:10:27.515Z,9.10
2022-11-28T10:13:20.393Z,9.20
2022-11-28T10:16:06.609Z,9.50
2022-11-28T10:18:48.628Z,9.90
2022-11-28T10:21:23.202Z,10.10
2022-11-28T10:23:54.836Z,10.40
2022-11-28T10:26:36.045Z,10.60
2022-11-28T10:29:20.451Z,10.50
2022-11-28T10:31:49.067Z,10.60
2022-11-28T10:34:42.378Z,10.50
2022-11-28T10:37:29.088Z,10.00
2022-11-28T10:39:59.112Z,10.20
2022-11-28T10:42:56.929Z,10.20
2022-11-28T10:45:33.718Z,10.30
2022-11-28T10:48:38.597Z,10.60
2022-11-28T10:51:05.694Z,10.60
2022-11-28T10:53:47.689Z,10.70
2022-11-28T10:56:21.691Z,11.00
2022-11-28T10:58:58.185Z,11.10
2022-11-28T11:01:33.064Z,11.00
2022-11-28T11:03:59.912Z,11.30
2022-11-28T11:06:36.087Z,11.40
2022-11-28T11:09:10.892Z,11.40
2022-11-28T11:11:42.364Z,11.70
2022-11-28T11:14:11.349Z,12.00
2022-11-28T11:16:47.794Z,12.30
2022-11-28T11:19:39.230Z,12.60
2022-11-28T11:22:19.958Z,12.90
2022-11-28T11:25:04.821Z,13.10
2022-11-28T11:27:31.980Z,13.10
2022-11-28T11:29:59.367Z,12.80
2022-11-28T11:32:30.669Z,12.90
2022-11-28T11:34:58.822Z,13.00
2022-11-28T11:37:37.381Z,13.20
2022-11-28T11:40:20.680Z,13.10
2022-11-28T11:42:58.455Z,13.20
2022-11-28T11:45:30.293Z,13.30
2022-11-28T11:47:57.426Z,13.40
2022-11-28T11:50:28.031Z,13.40
2022-11-28T11:53:10.371Z,13.00
2022-11-28T11:55:53.527Z,13.20
2022-11-28T11:58:24.564Z,13.40
2022-11-28T12:00:54.929Z,13.30
2022-11-28T12:03:41.398Z,13.50
2022-11-28T12:06:16.201Z,13.40
2022-11-28T12:09:09.970Z,13.60
2022-11-28T12:11:46.557Z,13.70
2022-11-28T12:14:31.547Z,13.70
2022-11-28T12:17:47.705Z,13.90
2022-11-28T12:20:34.524Z,14.00
2022-11-28T12:23:28.690Z,14.20
2022-11-28T12:26:09.109Z,14.50
2022-11-28T12:28:49.679Z,15.10
2022-11-28T12:31:41.380Z,15.40
2022-11-28T12:34:29.335Z,15.10
2022-11-28T12:37:14.857Z,14.90
2022-11-28T12:40:24.684Z,14.10
2022-11-28T12:43:13.199Z,13.70
2022-11-28T12:45:39.952Z,13.30
2022-11-28T12:48:15.182Z,13.20
2022-11-28T12:51:06.218Z,12.90
2022-11-28T12:53:59.316Z,13.10
2022-11-28T12:57:01.376Z,12.80
2022-11-28T12:59:59.994Z,12.70
2022-11-28T13:02:29.100Z,12.80
2022-11-28T13:05:20.128Z,12.90
2022-11-28T13:08:06.928Z,13.20
2022-11-28T13:10:49.034Z,13.40
2022-11-28T13:13:44.956Z,13.20
2022-11-28T13:16:12.001Z,13.50
2022-11-28T13:18:49.984Z,13.50
2022-11-28T13:21:19.763Z,14.20
2022-11-28T13:24:07.320Z,14.80
2022-11-28T13:26:52.623Z,15.10
2022-11-28T13:29:37.691Z,15.60
2022-11-28T13:32:29.600Z,15.50
2022-11-28T13:34:56.814Z,15.40
2022-11-28T13:40:30.529Z,14.70
2022-11-28T13:43:07.549Z,14.70
2022-11-28T13:45:41.468Z,14.50
2022-11-28T13:51:33.408Z,13.90
2022-11-28T13:54:21.681Z,14.00
2022-11-28T13:57:16.483Z,14.00
2022-11-28T13:59:53.279Z,14.00
2022-11-28T14:02:34.765Z,14.10
2022-11-28T14:05:02.519Z,14.10
2022-11-28T14:07:33.221Z,14.00
2022-11-28T14:10:30.008Z,13.60
2022-11-28T14:13:13.784Z,13.50
2022-11-28T14:15:55.683Z,13.30
2022-11-28T14:18:56.225Z,13.30
2022-11-28T14:21:38.676Z,13.30
2022-11-28T14:24:28.366Z,13.40
2022-11-28T14:27:01.926Z,13.60
2022-11-28T14:29:38.553Z,13.60
2022-11-28T14:32:28.859Z,13.60
2022-11-28T14:34:52.920Z,13.70
2022-11-28T14:37:19.683Z,13.70
2022-11-28T14:39:48.047Z,13.60
2022-11-28T14:42:30.574Z,13.60
2022-11-28T14:45:21.707Z,13.70
2022-11-28T14:48:26.977Z,13.80
2022-11-28T14:51:01.016Z,13.60
2022-11-28T14:53:34.567Z,13.30
2022-11-28T14:56:15.877Z,13.10
2022-11-28T14:58:47.812Z,13.10
2022-11-28T15:01:42.875Z,13.30
2022-11-28T15:04:34.264Z,13.30
2022-11-28T15:07:03.873Z,13.40
2022-11-28T15:09:42.662Z,13.40
2022-11-28T15:12:42.567Z,13.50
2022-11-28T15:15:14.252Z,13.40
2022-11-28T15:17:44.150Z,13.50
2022-11-28T15:20:35.414Z,13.50
2022-11-28T15:23:02.317Z,13.90
2022-11-28T15:25:37.285Z,14.10
2022-11-28T15:28:14.809Z,14.20
2022-11-28T15:30:47.756Z,14.20
2022-11-28T15:33:14.745Z,14.30
2022-11-28T15:36:10.747Z,14.40
2022-11-28T15:38:38.575Z,14.40
2022-11-28T15:41:05.724Z,14.10
2022-11-28T15:43:32.615Z,13.90
2022-11-28T15:46:01.193Z,13.80
2022-11-28T15:48:46.839Z,13.70
2022-11-28T15:51:41.224Z,13.70
2022-11-28T15:54:31.667Z,13.70
2022-11-28T15:56:59.930Z,13.50
2022-11-28T15:59:26.919Z,13.40
2022-11-28T16:02:08.384Z,13.40
2022-11-28T16:04:35.326Z,13.40
2022-11-28T16:07:02.614Z,13.40
2022-11-28T16:09:35.371Z,13.40
2022-11-28T16:12:04.929Z,13.40
2022-11-28T16:14:34.438Z,13.40
2022-11-28T16:17:14.906Z,13.20
2022-11-28T16:19:43.723Z,13.00
2022-11-28T16:22:16.893Z,13.20
2022-11-28T16:24:50.662Z,13.20
2022-11-28T16:27:38.570Z,13.10
2022-11-28T16:30:32.929Z,13.10
2022-11-28T16:33:00.135Z,12.90
2022-11-28T16:35:28.822Z,12.80
2022-11-28T16:38:16.438Z,12.60
2022-11-28T16:40:45.050Z,12.70
2022-11-28T16:43:25.334Z,12.70
2022-11-28T16:46:00.223Z,12.70
2022-11-28T16:48:37.039Z,12.80
2022-11-28T16:51:07.393Z,12.80
2022-11-28T16:53:49.900Z,12.60
2022-11-28T16:56:31.653Z,12.30
2022-11-28T16:59:07.255Z,12.30
2022-11-28T17:01:35.225Z,12.40
2022-11-28T17:04:02.460Z,12.40
2022-11-28T17:06:34.451Z,12.40
2022-11-28T17:09:01.946Z,12.40
2022-11-28T17:11:32.922Z,12.30
2022-11-28T17:14:02.547Z,12.20
2022-11-28T17:16:33.517Z,12.30
2022-11-28T17:19:00.329Z,12.20
2022-11-28T17:21:33.926Z,12.30
2022-11-28T17:24:01.819Z,12.20
2022-11-28T17:26:28.922Z,12.00
2022-11-28T17:28:55.703Z,12.00
2022-11-28T17:31:23.825Z,12.10
2022-11-28T17:33:51.075Z,12.10
2022-11-28T17:36:17.930Z,12.20
2022-11-28T17:38:44.740Z,12.30
2022-11-28T17:41:14.293Z,12.40
2022-11-28T17:43:41.676Z,12.30
2022-11-28T17:46:09.440Z,12.00
2022-11-28T17:48:36.251Z,11.60
2022-11-28T17:51:03.777Z,11.50
2022-11-28T17:53:30.655Z,11.20
2022-11-28T17:55:59.791Z,11.00
2022-11-28T17:58:26.890Z,11.00
2022-11-28T18:00:59.940Z,10.80
2022-11-28T18:03:28.089Z,10.70
2022-11-28T18:05:54.935Z,10.60
2022-11-28T18:08:22.532Z,10.50
2022-11-28T18:10:49.848Z,10.50
2022-11-28T18:13:17.565Z,10.60
2022-11-28T18:15:47.119Z,10.50
2022-11-28T18:18:14.031Z,10.60
2022-11-28T18:20:40.835Z,10.50
2022-11-28T18:23:10.275Z,10.40
2022-11-28T18:25:42.918Z,10.50
2022-11-28T18:28:18.614Z,10.50
2022-11-28T18:30:47.028Z,10.30
2022-11-28T18:33:15.221Z,10.30
2022-11-28T18:35:42.727Z,10.20
2022-11-28T18:38:11.917Z,10.30
2022-11-28T18:40:39.009Z,10.40
2022-11-28T18:43:07.970Z,10.50
2022-11-28T18:45:35.260Z,10.60
2022-11-28T18:48:02.391Z,10.70
2022-11-28T18:50:29.178Z,10.80
2022-11-28T18:52:56.252Z,10.80
2022-11-28T18:55:23.670Z,10.90
2022-11-28T18:57:53.913Z,10.90
2022-11-28T19:00:21.250Z,10.80
2022-11-28T19:02:47.999Z,10.40
2022-11-28T19:05:14.811Z,10.20
2022-11-28T19:07:41.880Z,10.30
2022-11-28T19:10:09.262Z,10.10
2022-11-28T19:13:27.151Z,10.10
2022-11-28T19:15:53.896Z,10.00
2022-11-28T19:18:20.664Z,9.70
2022-11-28T19:20:47.942Z,9.70
2022-11-28T19:23:14.763Z,9.70
2022-11-28T19:25:42.446Z,9.80
2022-11-28T19:28:09.141Z,9.60
2022-11-28T19:30:35.992Z,9.70
2022-11-28T19:33:02.910Z,9.90
2022-11-28T19:35:29.658Z,10.10
2022-11-28T19:37:56.406Z,10.30
2022-11-28T19:40:23.646Z,10.00
2022-11-28T19:42:50.393Z,9.60
2022-11-28T19:45:17.482Z,9.60
2022-11-28T19:47:46.565Z,9.60
2022-11-28T19:50:13.525Z,9.50
2022-11-28T19:52:41.087Z,9.10
2022-11-28T19:55:08.114Z,9.00
2022-11-28T19:57:38.402Z,9.30
2022-11-28T20:02:57.081Z,9.60
2022-11-28T20:05:23.786Z,9.70
2022-11-28T20:07:55.501Z,9.80
2022-11-28T20:10:25.980Z,10.10
2022-11-28T20:12:54.273Z,10.20
2022-11-28T20:15:21.883Z,10.30
2022-11-28T20:17:48.961Z,10.20
2022-11-28T20:20:16.081Z,9.70
2022-11-28T20:22:43.078Z,9.40
2022-11-28T20:25:09.853Z,9.40
2022-11-28T20:27:36.882Z,9.20
2022-11-28T20:30:06.727Z,9.60
2022-11-28T20:32:33.587Z,9.90
2022-11-28T20:35:01.528Z,10.10
2022-11-28T20:37:28.908Z,9.80
2022-11-28T20:39:58.005Z,9.60
2022-11-28T20:42:24.951Z,9.80
2022-11-28T20:44:51.732Z,10.00
2022-11-28T20:47:18.617Z,10.30
2022-11-28T20:49:45.651Z,10.30
2022-11-28T20:52:12.676Z,10.10
2022-11-28T20:54:39.361Z,10.10
2022-11-28T20:57:20.926Z,10.00
2022-11-28T20:59:49.926Z,10.00
2022-11-28T21:02:16.792Z,9.90
2022-11-28T21:04:43.671Z,10.00
2022-11-28T21:07:10.443Z,9.90
2022-11-28T21:09:37.229Z,9.50
2022-11-28T21:12:04.403Z,9.50
2022-11-28T21:14:31.344Z,9.50
2022-11-28T21:16:59.530Z,9.50
2022-11-28T21:19:26.667Z,9.90
2022-11-28T21:21:53.957Z,9.80
2022-11-28T21:24:20.743Z,10.10
2022-11-28T21:26:53.420Z,9.90
2022-11-28T21:29:22.753Z,9.90
2022-11-28T21:31:49.691Z,9.70
2022-11-28T21:34:17.624Z,9.80
2022-11-28T21:36:45.370Z,9.80
2022-11-28T21:39:14.213Z,10.10
2022-11-28T21:41:41.135Z,10.10
2022-11-28T21:44:08.776Z,10.20
2022-11-28T21:46:35.509Z,10.10
2022-11-28T21:49:02.372Z,9.90
2022-11-28T21:51:29.535Z,9.60
2022-11-28T21:53:59.343Z,10.00
2022-11-28T21:56:26.537Z,9.80
2022-11-28T21:58:53.793Z,9.80
2022-11-28T22:01:21.596Z,9.50
2022-11-28T22:03:48.997Z,9.50
2022-11-28T22:06:19.460Z,9.60
2022-11-28T22:08:46.424Z,9.60
2022-11-28T22:11:14.710Z,9.90
2022-11-28T22:13:42.977Z,10.00
2022-11-28T22:16:20.951Z,10.00
2022-11-28T22:18:48.977Z,9.90
2022-11-28T22:24:03.964Z,9.70
2022-11-28T22:26:30.724Z,9.50
2022-11-28T22:28:58.926Z,9.60
2022-11-28T22:31:25.921Z,9.50
2022-11-28T22:33:53.173Z,9.50
2022-11-28T22:36:21.255Z,9.30
2022-11-28T22:38:49.702Z,9.30
2022-11-28T22:41:23.373Z,9.30
2022-11-28T22:43:56.451Z,9.20
2022-11-28T22:46:23.369Z,9.20
2022-11-28T22:48:51.802Z,9.10
2022-11-28T22:51:22.757Z,9.10
2022-11-28T22:53:54.462Z,8.90
2022-11-28T22:56:21.515Z,8.80
2022-11-28T22:58:48.843Z,8.70
2022-11-28T23:01:22.215Z,8.70
2022-11-28T23:03:50.265Z,8.70
2022-11-28T23:06:19.811Z,8.90
2022-11-28T23:08:47.108Z,8.90
2022-11-28T23:11:22.266Z,9.10
2022-11-28T23:13:50.244Z,9.50
2022-11-28T23:16:19.812Z,9.70
2022-11-28T23:18:49.850Z,9.50
2022-11-28T23:21:18.320Z,9.60
2022-11-28T23:23:46.022Z,9.60
2022-11-28T23:26:24.755Z,9.50
2022-11-28T23:28:52.272Z,9.60
2022-11-28T23:31:22.104Z,9.70
2022-11-28T23:33:49.547Z,9.50
2022-11-28T23:36:23.801Z,9.40
2022-11-28T23:38:52.925Z,8.90
2022-11-28T23:41:20.367Z,8.80
2022-11-28T23:43:47.682Z,8.80
2022-11-28T23:46:16.723Z,8.70
2022-11-28T23:48:43.809Z,8.60
2022-11-28T23:51:12.949Z,8.70
2022-11-28T23:53:40.750Z,8.40
2022-11-28T23:56:13.927Z,8.50
2022-11-28T23:58:41.587Z,8.90
